Mt Hood
Timberline - Magic Mile Chair
Latest observation 09/03 18:00 PDT
| Time (PDT) | Temp °F 6990' | RH % 6990' | Min mph 6990' | Spd mph 6990' | Gust mph 6990' | Dir ° 6990' |
|---|---|---|---|---|---|---|
| 09/03 18:00 | 36 | 94 | 0 | 4 | 11 | 87 |
| 09/03 17:00 | 37 | 95 | 0 | 3 | 17 | 89 |
| 09/03 16:00 | 36 | 95 | 0 | 3 | 16 | 84 |
| 09/03 15:00 | 36 | 97 | 0 | 5 | 19 | 76 |
| 09/03 14:00 | 35 | 97 | 0 | 3 | 11 | 82 |
| 09/03 13:00 | 36 | 98 | 0 | 8 | 18 | 85 |
| 09/03 12:00 | 34 | 98 | 0 | 9 | 20 | 80 |
| 09/03 11:00 | 33 | 99 | 3 | 8 | 21 | 77 |
| 09/03 10:00 | 33 | 99 | 2 | 8 | 20 | 78 |
| 09/03 09:00 | 32 | 100 | 6 | 12 | 23 | 82 |
| 09/03 08:00 | 32 | 100 | 7 | 14 | 26 | 85 |
| 09/03 07:00 | 31 | 100 | 7 | 13 | 24 | 76 |
| 09/03 06:00 | 32 | 100 | 8 | 17 | 28 | 80 |
| 09/03 05:00 | 31 | 99 | 12 | 19 | 30 | 63 |
| 09/03 04:00 | 32 | 99 | 11 | 18 | 28 | 72 |
| 09/03 03:00 | 32 | 100 | 14 | 23 | 37 | 78 |
| 09/03 02:00 | 32 | 100 | 13 | 23 | 38 | 75 |
| 09/03 01:00 | 32 | 100 | 16 | 24 | 39 | 82 |
| 09/03 00:00 | 32 | 99 | 15 | 24 | 34 | 82 |
| 09/02 23:00 | 32 | 99 | 13 | 24 | 35 | 75 |
| 09/02 22:00 | 34 | 100 | 11 | 22 | 38 | 76 |
| 09/02 21:00 | 35 | 99 | 11 | 23 | 48 | 76 |
| 09/02 20:00 | 35 | 100 | 16 | 23 | 35 | 72 |
| 09/02 19:00 | 39 | 99 | 12 | 21 | 33 | 80 |
| 09/02 18:00 | 38 | 99 | 11 | 26 | 45 | 84 |
| 09/02 17:00 | 38 | 99 | 15 | 27 | 50 | 93 |
| 09/02 16:00 | 38 | 99 | 18 | 30 | 49 | 90 |
| 09/02 15:00 | 38 | 99 | 13 | 25 | 50 | 93 |
| 09/02 14:00 | 37 | 98 | 4 | 14 | 26 | 94 |
| 09/02 13:00 | 37 | 97 | 4 | 13 | 27 | 94 |
| 09/02 12:00 | 37 | 96 | 3 | 11 | 26 | 98 |
| 09/02 11:00 | 38 | 92 | 6 | 16 | 30 | 99 |
| 09/02 10:00 | 38 | 96 | 5 | 15 | 33 | 92 |
| 09/02 09:00 | 37 | 98 | 1 | 12 | 27 | 92 |
| 09/02 08:00 | 37 | 97 | 0 | 10 | 26 | 90 |
| 09/02 07:00 | 37 | 97 | 5 | 11 | 23 | -7999 |
| 09/02 06:00 | 37 | 98 | 3 | 13 | 30 | -7999 |
| 09/02 05:00 | 37 | 94 | 4 | 15 | 29 | -7999 |
| 09/02 04:00 | 37 | 95 | 10 | 17 | 31 | -7999 |
| 09/02 03:00 | 37 | 96 | 7 | 18 | 26 | -7999 |
| 09/02 02:00 | 38 | 96 | 14 | 21 | 31 | -7999 |
| 09/02 01:00 | 38 | 93 | 15 | 23 | 33 | -7999 |
| 09/02 00:00 | 38 | 96 | 12 | 25 | 37 | -7999 |
| 09/01 23:00 | 40 | 94 | 15 | 22 | 33 | -7999 |
| 09/01 22:00 | 42 | 77 | 12 | 22 | 37 | -7999 |
| 09/01 21:00 | 43 | 63 | 12 | 24 | 38 | -7999 |
| 09/01 20:00 | 44 | 69 | 7 | 19 | 32 | -7999 |
| 09/01 19:00 | 44 | 74 | 12 | 19 | 30 | -7999 |
| 09/01 18:00 | 49 | 49 | 8 | 19 | 32 | -7999 |
| 09/01 17:00 | 51 | 55 | 6 | 15 | 26 | -7999 |
| 09/01 16:00 | 53 | 56 | 4 | 14 | 28 | -7999 |
| 09/01 15:00 | 54 | 53 | 2 | 15 | 29 | -7999 |
| 09/01 14:00 | 57 | 51 | 4 | 13 | 30 | -7999 |
| 09/01 13:00 | 58 | 37 | 1 | 12 | 25 | -7999 |
| 09/01 12:00 | 58 | 45 | 2 | 12 | 20 | -7999 |
| 09/01 11:00 | 59 | 49 | 0 | 7 | 17 | -7999 |
| 09/01 10:00 | 60 | 32 | 0 | 2 | 11 | -7999 |
| 09/01 09:00 | 58 | 41 | 0 | 0 | 6 | -7999 |
| 09/01 08:00 | 53 | 34 | 0 | 0 | 1 | -7999 |
| 09/01 07:00 | 53 | 31 | 0 | 0 | 0 | -7999 |
| 09/01 06:00 | 53 | 32 | 0 | 0 | 2 | -7999 |
| 09/01 05:00 | 53 | 28 | 0 | 0 | 1 | -7999 |
| 09/01 04:00 | 54 | 26 | 0 | 0 | 4 | -7999 |
| 09/01 03:00 | 54 | 26 | 0 | 1 | 4 | -7999 |
| 09/01 02:00 | 53 | 33 | 0 | 1 | 4 | -7999 |
| 09/01 01:00 | 56 | 26 | 0 | 4 | 15 | -7999 |
| 09/01 00:00 | 53 | 44 | 0 | 1 | 5 | -7999 |
| 08/31 23:00 | 54 | 50 | 0 | 0 | 0 | -7999 |
| 08/31 22:00 | 56 | 48 | 0 | 0 | 0 | -7999 |
| 08/31 21:00 | 58 | 43 | 0 | 0 | 1 | -7999 |
| 08/31 20:00 | 59 | 42 | 0 | 0 | 0 | -7999 |
| 08/31 19:00 | 61 | 40 | 0 | 3 | 13 | -7999 |
| 08/31 18:00 | 63 | 41 | 0 | 10 | 19 | -7999 |
| 08/31 17:00 | 65 | 33 | 0 | 7 | 16 | -7999 |
| 08/31 16:00 | 63 | 30 | 0 | 8 | 20 | -7999 |
| 08/31 15:00 | 64 | 28 | 0 | 9 | 17 | -7999 |
| 08/31 14:00 | 64 | 25 | 0 | 7 | 18 | -7999 |
| 08/31 13:00 | 64 | 23 | 0 | 6 | 15 | -7999 |
| 08/31 12:00 | 61 | 25 | 3 | 9 | 16 | 119 |
| 08/31 11:00 | 59 | 24 | 0 | 11 | 21 | 114 |
| 08/31 10:00 | 58 | 25 | 5 | 12 | 21 | 114 |
| 08/31 09:00 | 57 | 26 | 6 | 13 | 24 | 98 |
| 08/31 08:00 | 55 | 28 | 4 | 10 | 17 | 101 |
| 08/31 07:00 | 52 | 33 | 2 | 10 | 17 | 98 |
| 08/31 06:00 | 52 | 36 | 4 | 8 | 16 | 106 |
| 08/31 05:00 | 52 | 32 | 5 | 9 | 12 | 100 |
| 08/31 04:00 | 51 | 34 | 3 | 8 | 11 | 102 |
| 08/31 03:00 | 50 | 43 | 7 | 9 | 13 | 105 |
| 08/31 02:00 | 50 | 57 | 3 | 9 | 14 | 105 |
| 08/31 01:00 | 54 | 44 | 0 | 2 | 6 | 105 |
| 08/31 00:00 | 52 | 52 | 1 | 5 | 10 | 109 |
| 08/30 23:00 | 52 | 53 | 5 | 8 | 10 | 101 |
| 08/30 22:00 | 51 | 58 | 6 | 8 | 12 | 101 |
| 08/30 21:00 | 51 | 60 | 0 | 3 | 9 | 106 |
| 08/30 20:00 | 53 | 54 | 0 | 0 | 2 | 108 |
| 08/30 19:00 | 53 | 56 | 0 | 0 | 4 | 117 |
| 08/30 18:00 | 56 | 54 | 0 | 4 | 12 | 118 |
| 08/30 17:00 | 56 | 51 | 0 | 7 | 15 | 110 |
| 08/30 16:00 | 57 | 53 | 0 | 8 | 19 | 101 |
| 08/30 15:00 | 56 | 55 | 0 | 9 | 19 | 101 |
| 08/30 14:00 | 55 | 53 | 2 | 10 | 19 | 105 |
| 08/30 13:00 | 57 | 46 | 0 | 7 | 17 | 106 |
| 08/30 12:00 | 55 | 49 | 0 | 5 | 19 | 109 |
| 08/30 11:00 | 54 | 50 | 0 | 2 | 9 | 106 |
| 08/30 10:00 | 52 | 37 | 0 | 1 | 13 | 102 |
| 08/30 09:00 | 51 | 33 | 0 | 0 | 5 | 91 |
| 08/30 08:00 | 47 | 36 | 0 | 0 | 0 | 91 |
| 08/30 07:00 | 41 | 39 | 0 | 0 | 2 | 91 |
| 08/30 06:00 | 41 | 35 | 0 | 1 | 7 | 99 |
| 08/30 05:00 | 42 | 38 | 0 | 8 | 16 | 106 |
| 08/30 04:00 | 43 | 33 | 3 | 10 | 19 | 98 |
| 08/30 03:00 | 43 | 28 | 8 | 14 | 22 | 101 |
| 08/30 02:00 | 42 | 31 | 7 | 15 | 25 | 90 |
| 08/30 01:00 | 37 | 62 | 12 | 19 | 29 | 98 |
| 08/30 00:00 | 36 | 69 | 15 | 22 | 32 | 86 |
| 08/29 23:00 | 35 | 67 | 11 | 18 | 34 | 83 |
| 08/29 22:00 | 35 | 93 | 12 | 19 | 30 | 86 |
| 08/29 21:00 | 36 | 95 | 13 | 22 | 32 | 83 |
| 08/29 20:00 | 36 | 95 | 16 | 24 | 34 | 70 |
| 08/29 19:00 | 37 | 97 | 15 | 24 | 39 | 72 |
| 08/29 18:00 | 37 | 97 | 16 | 28 | 43 | 76 |
| 08/29 17:00 | 37 | 97 | 17 | 27 | 40 | 67 |
| 08/29 16:00 | 37 | 96 | 17 | 28 | 40 | 67 |
| 08/29 15:00 | 37 | 97 | 18 | 27 | 35 | 68 |
| 08/29 14:00 | 37 | 97 | 19 | 27 | 37 | 64 |
| 08/29 13:00 | 36 | 98 | 21 | 29 | 39 | 64 |
| 08/29 12:00 | 35 | 99 | 21 | 29 | 49 | 61 |
| 08/29 11:00 | 34 | 99 | 20 | 29 | 42 | 60 |
| 08/29 10:00 | 33 | 99 | 22 | 33 | 48 | 61 |
| 08/29 09:00 | 34 | 98 | 21 | 33 | 50 | 52 |
| 08/29 08:00 | 35 | 99 | 20 | 30 | 41 | 81 |
| 08/29 07:00 | 35 | 98 | 21 | 29 | 40 | 85 |
| 08/29 06:00 | 34 | 95 | 20 | 30 | 43 | 85 |
| 08/29 05:00 | 34 | 84 | 17 | 27 | 46 | 86 |
| 08/29 04:00 | 36 | 92 | 17 | 27 | 40 | 85 |
| 08/29 03:00 | 38 | 91 | 17 | 27 | 43 | 82 |
| 08/29 02:00 | 39 | 92 | 17 | 29 | 41 | 81 |
| 08/29 01:00 | 40 | 94 | 16 | 29 | 43 | 91 |
| 08/29 00:00 | 40 | 92 | 18 | 25 | 39 | 91 |
| 08/28 23:00 | 41 | 87 | 15 | 25 | 36 | 95 |
| 08/28 22:00 | 42 | 84 | 16 | 23 | 33 | 96 |
| 08/28 21:00 | 44 | 76 | 17 | 23 | 33 | 94 |
| 08/28 20:00 | 47 | 54 | 13 | 19 | 28 | 100 |
| 08/28 19:00 | 51 | 41 | 12 | 18 | 26 | 109 |
| 08/28 18:00 | 53 | 42 | 11 | 17 | 25 | 115 |
| 08/28 17:00 | 54 | 53 | 9 | 15 | 27 | 114 |
| 08/28 16:00 | 56 | 48 | 6 | 15 | 25 | 119 |
| 08/28 15:00 | 56 | 50 | 4 | 15 | 25 | 118 |
| 08/28 14:00 | 58 | 52 | 4 | 14 | 25 | 116 |
| 08/28 13:00 | 59 | 47 | 3 | 12 | 22 | 117 |
| 08/28 12:00 | 61 | 36 | 3 | 9 | 21 | 117 |
| 08/28 11:00 | 61 | 27 | 0 | 9 | 18 | 107 |
| 08/28 10:00 | 61 | 27 | 0 | 7 | 17 | 110 |
| 08/28 09:00 | 60 | 28 | 0 | 2 | 15 | 91 |
| 08/28 08:00 | 54 | 33 | 0 | 0 | 0 | 94 |
| 08/28 07:00 | 46 | 39 | 0 | 4 | 8 | -7999 |
| 08/28 06:00 | 47 | 34 | 0 | 5 | 8 | 90 |
| 08/28 05:00 | 47 | 33 | 4 | 8 | 13 | -7999 |
| 08/28 04:00 | 48 | 35 | 4 | 9 | 13 | 101 |
| 08/28 03:00 | 48 | 29 | 6 | 11 | 16 | 102 |
| 08/28 02:00 | 49 | 35 | 8 | 12 | 19 | 101 |
| 08/28 01:00 | 50 | 30 | 7 | 13 | 21 | 90 |
| 08/28 00:00 | 47 | 35 | 10 | 15 | 20 | 94 |
| 08/27 23:00 | 48 | 42 | 12 | 18 | 28 | 93 |
| 08/27 22:00 | 49 | 41 | 13 | 21 | 30 | 95 |
| 08/27 21:00 | 49 | 42 | 14 | 22 | 30 | 95 |
| 08/27 20:00 | 49 | 43 | 18 | 25 | 32 | 100 |
| 08/27 19:00 | 51 | 44 | 16 | 22 | 30 | 102 |

